createdAt,value
2022-11-30T00:00:18.188Z,4.14
2022-11-30T00:05:20.958Z,4.43
2022-11-30T00:10:23.607Z,4.37
2022-11-30T00:15:25.302Z,4.25
2022-11-30T00:20:29.704Z,4.38
2022-11-30T00:25:31.381Z,4.23
2022-11-30T00:30:33.076Z,4.32
2022-11-30T00:35:34.767Z,4.04
2022-11-30T00:40:36.428Z,4.23
2022-11-30T00:45:38.089Z,4.28
2022-11-30T00:50:39.789Z,4.17
2022-11-30T00:55:43.569Z,4.30
2022-11-30T01:00:45.515Z,4.41
2022-11-30T01:05:47.333Z,4.31
2022-11-30T01:10:53.392Z,4.36
2022-11-30T01:15:55.156Z,4.36
2022-11-30T01:20:56.961Z,4.43
2022-11-30T01:25:58.660Z,4.37
2022-11-30T01:31:02.691Z,4.35
2022-11-30T01:36:13.785Z,4.28
2022-11-30T01:41:20.050Z,4.25
2022-11-30T01:46:27.520Z,4.16
2022-11-30T01:51:34.190Z,4.06
2022-11-30T01:56:37.852Z,3.91
2022-11-30T02:01:39.552Z,3.74
2022-11-30T02:06:42.185Z,3.82
2022-11-30T02:11:43.937Z,3.64
2022-11-30T02:17:05.536Z,3.75
2022-11-30T02:22:33.620Z,3.80
2022-11-30T02:27:53.645Z,3.63
2022-11-30T02:33:07.283Z,3.46
2022-11-30T02:38:10.428Z,3.35
2022-11-30T02:43:12.139Z,3.08
2022-11-30T02:48:17.281Z,3.27
2022-11-30T02:53:19.972Z,3.24
2022-11-30T02:58:22.365Z,3.02
2022-11-30T03:03:24.074Z,3.27
2022-11-30T03:08:25.823Z,3.17
2022-11-30T03:13:27.496Z,3.31
2022-11-30T03:18:29.152Z,3.34
2022-11-30T03:23:30.860Z,3.03
2022-11-30T03:28:32.651Z,3.22
2022-11-30T03:33:34.332Z,3.09
2022-11-30T03:38:36.639Z,3.17
2022-11-30T03:43:38.355Z,3.21
2022-11-30T03:48:43.235Z,2.98
2022-11-30T03:53:45.085Z,3.11
2022-11-30T03:58:46.796Z,2.73
2022-11-30T04:03:49.282Z,3.05
2022-11-30T04:08:50.967Z,2.82
2022-11-30T04:13:52.636Z,2.52
2022-11-30T04:18:54.342Z,2.54
2022-11-30T04:23:56.006Z,2.36
2022-11-30T04:28:57.676Z,2.25
2022-11-30T04:33:59.469Z,2.12
2022-11-30T04:39:01.148Z,1.88
2022-11-30T04:44:02.839Z,2.14
2022-11-30T04:49:04.664Z,1.88
2022-11-30T04:54:06.450Z,1.71
2022-11-30T04:59:08.124Z,1.77
2022-11-30T05:04:09.846Z,1.67
2022-11-30T05:09:11.529Z,1.76
2022-11-30T05:14:13.226Z,1.68
2022-11-30T05:19:15.549Z,1.66
2022-11-30T05:24:17.261Z,1.56
2022-11-30T05:29:18.939Z,1.65
2022-11-30T05:34:20.662Z,1.73
2022-11-30T05:39:22.329Z,1.61
2022-11-30T05:44:24.007Z,1.78
2022-11-30T05:49:25.684Z,1.48
2022-11-30T05:54:27.443Z,1.48
2022-11-30T05:59:29.111Z,1.18
2022-11-30T06:04:30.874Z,1.27
2022-11-30T06:09:32.550Z,1.38
2022-11-30T06:14:34.225Z,1.46
2022-11-30T06:19:35.890Z,1.45
2022-11-30T06:24:37.599Z,1.60
2022-11-30T06:29:39.279Z,1.58
2022-11-30T06:34:40.941Z,1.48
2022-11-30T06:40:05.291Z,1.59
2022-11-30T06:45:05.794Z,1.64
2022-11-30T06:50:08.369Z,1.49
2022-11-30T06:55:11.039Z,1.53
2022-11-30T07:00:13.470Z,1.17
2022-11-30T07:05:15.189Z,1.39
2022-11-30T07:10:20.118Z,1.08
2022-11-30T07:15:22.130Z,1.00
2022-11-30T07:20:23.793Z,1.14
2022-11-30T07:25:44.113Z,1.46
2022-11-30T07:30:45.780Z,1.48
2022-11-30T07:35:47.460Z,1.71
2022-11-30T07:40:49.154Z,1.80
2022-11-30T07:45:54.032Z,2.11
2022-11-30T07:51:02.321Z,2.55
2022-11-30T07:56:05.794Z,2.95
2022-11-30T08:01:12.916Z,3.01
2022-11-30T08:06:19.899Z,3.41
2022-11-30T08:11:24.354Z,3.70
2022-11-30T08:16:28.845Z,4.04
2022-11-30T08:21:32.442Z,3.91
2022-11-30T08:26:34.475Z,3.46
2022-11-30T08:31:37.772Z,3.48
2022-11-30T08:36:40.716Z,2.67
2022-11-30T08:41:42.422Z,2.80
2022-11-30T08:46:52.383Z,3.08
2022-11-30T08:57:20.361Z,2.73
2022-11-30T09:02:22.074Z,3.31
2022-11-30T09:07:23.777Z,3.33
2022-11-30T09:12:25.460Z,3.66
2022-11-30T09:17:27.150Z,3.96
2022-11-30T09:22:28.919Z,3.99
2022-11-30T09:27:34.211Z,4.52
2022-11-30T09:32:35.883Z,4.61
2022-11-30T09:37:38.888Z,4.66
2022-11-30T09:43:20.789Z,4.66
2022-11-30T09:48:27.261Z,5.24
2022-11-30T09:53:40.493Z,5.30
2022-11-30T09:58:49.447Z,6.24
2022-11-30T10:03:51.300Z,7.41
2022-11-30T10:09:07.942Z,7.84
2022-11-30T10:14:35.500Z,6.31
2022-11-30T10:20:01.730Z,5.94
2022-11-30T10:25:08.626Z,5.78
2022-11-30T10:30:25.370Z,5.79
2022-11-30T10:35:43.374Z,6.35
2022-11-30T10:40:58.893Z,7.99
2022-11-30T10:46:00.694Z,10.65
2022-11-30T10:51:03.679Z,9.98
2022-11-30T10:56:12.241Z,13.18
2022-11-30T11:01:35.957Z,13.95
2022-11-30T11:06:44.133Z,10.48
2022-11-30T11:11:45.980Z,10.70
2022-11-30T11:16:51.964Z,12.55
2022-11-30T11:21:53.951Z,10.97
2022-11-30T11:26:57.143Z,10.76
2022-11-30T11:32:27.231Z,9.70
2022-11-30T11:37:31.127Z,9.83
2022-11-30T11:42:42.482Z,10.42
2022-11-30T11:47:46.300Z,8.79
2022-11-30T11:52:49.890Z,8.56
2022-11-30T11:58:02.387Z,8.44
2022-11-30T12:03:19.211Z,10.21
2022-11-30T12:08:55.142Z,8.53
2022-11-30T12:13:56.869Z,9.66
2022-11-30T12:19:16.144Z,8.04
2022-11-30T12:24:26.691Z,8.40
2022-11-30T12:30:09.982Z,8.03
2022-11-30T12:35:45.598Z,7.22
2022-11-30T12:41:02.423Z,7.40
2022-11-30T12:46:14.963Z,7.70
2022-11-30T12:51:30.159Z,6.71
2022-11-30T12:57:01.467Z,6.56
2022-11-30T13:02:22.222Z,6.45
2022-11-30T13:07:38.359Z,6.08
2022-11-30T13:12:47.115Z,6.00
2022-11-30T13:17:50.135Z,6.20
2022-11-30T13:23:34.056Z,6.11
2022-11-30T13:28:41.882Z,6.28
2022-11-30T13:33:49.038Z,7.65
2022-11-30T13:39:14.000Z,8.65
2022-11-30T13:44:37.265Z,8.60
2022-11-30T13:49:38.995Z,8.03
2022-11-30T13:54:50.431Z,7.06
2022-11-30T13:59:54.572Z,7.92
2022-11-30T14:05:21.503Z,6.73
2022-11-30T14:10:36.090Z,6.11
2022-11-30T14:15:42.075Z,6.07
2022-11-30T14:21:16.412Z,5.88
2022-11-30T14:26:24.552Z,5.77
2022-11-30T14:31:30.517Z,5.63
2022-11-30T14:36:41.610Z,5.46
2022-11-30T14:41:43.291Z,5.28
2022-11-30T14:46:45.104Z,5.07
2022-11-30T14:52:05.595Z,4.99
2022-11-30T14:57:22.684Z,4.91
2022-11-30T15:02:38.656Z,4.87
2022-11-30T15:07:42.993Z,4.81
2022-11-30T15:12:45.943Z,4.77
2022-11-30T15:17:51.074Z,4.80
2022-11-30T15:22:54.902Z,4.86
2022-11-30T15:27:58.564Z,4.81
2022-11-30T15:33:00.311Z,4.92
2022-11-30T15:38:08.414Z,4.78
2022-11-30T15:43:22.006Z,4.84
2022-11-30T15:48:49.214Z,4.79
2022-11-30T15:53:51.911Z,4.95
2022-11-30T15:59:24.187Z,4.72
2022-11-30T16:04:25.898Z,4.91
2022-11-30T16:09:32.619Z,4.77
2022-11-30T16:14:34.313Z,4.83
2022-11-30T16:19:36.009Z,5.00
2022-11-30T16:24:37.682Z,4.84
2022-11-30T16:29:39.344Z,4.94
2022-11-30T16:34:41.576Z,5.04
2022-11-30T16:39:43.406Z,5.12
2022-11-30T16:44:45.084Z,5.05
2022-11-30T16:49:47.154Z,5.18
2022-11-30T16:54:49.024Z,5.06
2022-11-30T16:59:50.679Z,5.03
2022-11-30T17:04:52.388Z,5.25
2022-11-30T17:09:54.062Z,5.20
2022-11-30T17:14:56.003Z,5.16
2022-11-30T17:19:57.822Z,5.26
2022-11-30T17:24:59.624Z,5.07
2022-11-30T17:30:01.400Z,5.11
2022-11-30T17:35:03.515Z,5.13
2022-11-30T17:40:07.064Z,4.76
2022-11-30T17:45:09.348Z,4.98
2022-11-30T17:50:11.437Z,4.95
2022-11-30T17:55:13.097Z,4.97
2022-11-30T18:00:15.493Z,4.79
2022-11-30T18:05:17.226Z,4.84
2022-11-30T18:10:19.102Z,4.75
2022-11-30T18:15:20.755Z,4.67
2022-11-30T18:20:22.840Z,4.65
2022-11-30T18:25:24.718Z,4.64
2022-11-30T18:30:26.663Z,4.55
2022-11-30T18:35:28.766Z,4.68
2022-11-30T18:40:30.452Z,4.87
2022-11-30T18:45:35.816Z,5.06
2022-11-30T18:50:37.580Z,4.89
2022-11-30T18:55:39.239Z,4.71
2022-11-30T19:00:41.158Z,4.90
2022-11-30T19:05:42.819Z,4.93
2022-11-30T19:10:44.507Z,5.01
2022-11-30T19:15:46.187Z,4.82
2022-11-30T19:20:47.857Z,4.94
2022-11-30T19:25:50.197Z,4.76
2022-11-30T19:30:51.911Z,4.86
2022-11-30T19:35:53.631Z,5.11
2022-11-30T19:40:55.425Z,5.12
2022-11-30T19:46:02.999Z,5.01
2022-11-30T19:51:13.405Z,4.81
2022-11-30T19:56:18.107Z,4.91
2022-11-30T20:01:25.399Z,4.74
2022-11-30T20:06:33.923Z,4.86
2022-11-30T20:11:35.797Z,4.83
2022-11-30T20:16:37.501Z,4.61
2022-11-30T20:21:39.235Z,4.48
2022-11-30T20:26:43.358Z,4.65
2022-11-30T20:31:47.164Z,4.37
2022-11-30T20:36:48.857Z,4.22
2022-11-30T20:41:50.519Z,4.07
2022-11-30T20:46:52.189Z,3.92
2022-11-30T20:51:54.037Z,3.80
2022-11-30T20:56:57.329Z,3.72
2022-11-30T21:01:59.037Z,3.65
2022-11-30T21:07:00.888Z,3.44
2022-11-30T21:12:02.593Z,3.53
2022-11-30T21:17:04.776Z,2.92
2022-11-30T21:22:06.505Z,2.57
2022-11-30T21:27:08.302Z,2.56
2022-11-30T21:32:10.085Z,2.70
2022-11-30T21:37:11.743Z,2.75
2022-11-30T21:42:13.395Z,2.91
2022-11-30T21:47:15.266Z,3.00
2022-11-30T21:52:16.995Z,2.94
2022-11-30T21:57:18.886Z,3.00
2022-11-30T22:02:20.604Z,2.95
2022-11-30T22:07:31.655Z,2.81
2022-11-30T22:12:33.402Z,2.83
2022-11-30T22:17:35.073Z,2.61
2022-11-30T22:22:36.753Z,2.10
2022-11-30T22:27:38.559Z,2.11
2022-11-30T22:32:43.477Z,2.19
2022-11-30T22:37:45.391Z,2.05
2022-11-30T22:42:47.064Z,2.08
2022-11-30T22:47:48.755Z,1.89
2022-11-30T22:53:05.164Z,1.91
2022-11-30T22:58:06.848Z,1.79
2022-11-30T23:03:08.609Z,1.38
2022-11-30T23:08:10.358Z,1.71
2022-11-30T23:13:12.138Z,1.90
2022-11-30T23:18:13.813Z,2.01
2022-11-30T23:23:15.552Z,2.15
2022-11-30T23:28:17.375Z,2.18
2022-11-30T23:33:19.078Z,1.77
2022-11-30T23:38:20.754Z,1.55
2022-11-30T23:43:22.461Z,1.82
2022-11-30T23:48:24.464Z,1.55
2022-11-30T23:53:26.693Z,1.45
2022-11-30T23:58:29.840Z,1.29
